Grand Marais, Michigan
Current Conditions -  °F | °C
As of 3:15 AM on Thursday 18 Dec 2014 (Local Time) from KERY Reporting Station
Broken Clouds Broken Clouds  
Wind Chill:   Ceiling: 900
Heat Index: 18°   Visibility: 10mi
Dew Point: 17°   Wind: 8mph
Humidity: 96%   Direction: 360°N
Pressure: 30.2"   Gusts: NA
Location:  46.67°N, 85.99°W
Report Text: KERY 180815Z AUTO 36007KT 10SM BKN009 M08/M08 A3020 RMK AO2 T10771083
Loading
Personal Weather Stations






























Interactive Weather Map New forecast layout! Learn more

10-Day Weather Forecast

Advertisements
Track Severe Weather on mobile